首页
METAR-TAF:

METAR-TAF

机场 :

Bartlesville, 奧克拉荷馬州, 美国

纬度: 36-46-06N, 经度: 096-01-34W, 海拔: 217米

当前天气观测

该预报发布于21分钟前的02:53 UTC
静风
温度 -2°C
湿度 74%
气压 1020 hPa
能見度: 16.1公里
天空无云

METAR: KBVO 140253Z AUTO 00000KT 10SM CLR M02/M06 A3013 RMK AO2 SLP206 T10221056 52020

时间: 21:14 (03:14 UTC)

预报

该预报发布于3小时和48分钟前的23:26 UTC
预报有效从14日的 00点(UTC)到 14日的 24点(UTC)
风速4节,风向多变
能見度: 10公里
少量云层高于25000英尺
从 14日的 1500点(UTC)
风速7节,风向
能見度: 10公里
多云层高于2500英尺
多云层高于10000英尺
从 14日的 2000点(UTC)
风速8节,风向
能見度: 10公里
散云层高于5000英尺

TAF: KBVO 132326Z 1400/1424 VRB04KT P6SM FEW250 FM141500 36007KT P6SM BKN025 BKN100 FM142000 36008KT P6SM SCT050

超过4000个机场的气象观测和天气预报(METAR&TAF报告)。

可查询的气象台以黄色和红色小点在地图上表示。

将鼠标移到小点上方,可查看气象台名称。

然后点击查看天气观测和预报。

如需切换地图:点击带黑十字的绿色按钮放大地图;点击带横线的绿色按钮缩小地图;或者点击绿色箭头查看邻近地区的地图。


METAR-TAF: